Mount Vernon, Ohio
Current Conditions -  °F | °C
As of 11:36 AM on Sunday 21 Dec 2014 (Local Time) from K4I3 Reporting Station
Broken Clouds Broken Clouds  
Wind Chill: 26°   Ceiling: 2400
Heat Index: 32°   Visibility: 7mi
Dew Point: 21°   Wind: 6mph
Humidity: 64%   Direction: 130°SE
Pressure: 30.29"   Gusts: NA
Location:  40.39°N, 82.48°W
Report Text: K4I3 211636Z AUTO 13005KT 7SM BKN024 M00/M06 A3029 RMK AO2
Loading
Personal Weather Stations






























Interactive Weather Map New forecast layout! Learn more

10-Day Weather Forecast

Advertisements
Track Severe Weather on mobile